Time;durP1;ratioP1;P1;durP2;ratioP2;P2;SDS_P1;SDS_P2;PMS_P1;PMS_P2;Temp;Humidity;BMP_temperature;BMP_pressure;BME280_temperature;BME280_humidity;BME280_pressure;Samples;Min_cycle;Max_cycle;Signal;HPM_P1;HPM_P2
2022/05/26 00:00:22;;;;;;;15.20;5.62;;;27.20;99.90;;;;;;1926637;73;21124;-83
2022/05/26 00:02:53;;;;;;;17.55;5.58;;;27.40;99.90;;;;;;1867055;75;21141;-82
2022/05/26 00:05:24;;;;;;;10.10;5.35;;;27.30;99.90;;;;;;1852129;76;21159;-83
2022/05/26 00:07:55;;;;;;;13.60;5.85;;;27.40;99.90;;;;;;1893882;75;21186;-82
2022/05/26 00:10:26;;;;;;;12.98;5.70;;;27.40;99.90;;;;;;1905202;74;22041;-83
2022/05/26 00:12:57;;;;;;;13.25;4.80;;;27.60;99.90;;;;;;1929168;73;21222;-83
2022/05/26 00:15:30;;;;;;;13.05;5.80;;;27.60;99.90;;;;;;1869380;75;21126;-82
2022/05/26 00:18:01;;;;;;;10.03;4.87;;;27.50;99.90;;;;;;1866733;75;21254;-82
2022/05/26 00:20:33;;;;;;;11.78;5.08;;;27.50;99.90;;;;;;1861448;75;21535;-79
2022/05/26 00:23:05;;;;;;;11.80;4.78;;;27.50;99.90;;;;;;1882651;74;21575;-79
2022/05/26 00:25:36;;;;;;;11.97;5.35;;;27.50;99.90;;;;;;1884533;75;21566;-83
2022/05/26 00:28:07;;;;;;;11.15;4.67;;;27.50;99.90;;;;;;1891980;75;21564;-81
2022/05/26 00:30:40;;;;;;;10.88;4.30;;;27.70;99.90;;;;;;1882162;74;21587;-80
2022/05/26 00:33:13;;;;;;;11.60;4.78;;;27.60;99.90;;;;;;1890390;74;21175;-81
2022/05/26 00:35:51;;;;;;;14.55;5.87;;;27.60;99.90;;;;;;1891242;74;21153;-88
2022/05/26 00:38:23;;;;;;;11.40;4.97;;;27.70;99.90;;;;;;1880760;74;21049;-85
2022/05/26 00:40:57;;;;;;;14.33;5.22;;;27.80;99.90;;;;;;1902682;74;21173;-84
2022/05/26 00:43:29;;;;;;;10.45;4.62;;;27.80;99.90;;;;;;1897370;74;21702;-83
2022/05/26 00:46:01;;;;;;;12.28;5.15;;;27.80;99.90;;;;;;1897915;75;21120;-83
2022/05/26 00:48:38;;;;;;;13.68;5.17;;;27.90;99.90;;;;;;1887955;74;21155;-86
2022/05/26 00:51:16;;;;;;;9.63;5.20;;;27.90;99.90;;;;;;1891373;74;21056;-83
2022/05/26 00:53:51;;;;;;;13.53;4.62;;;28.10;99.90;;;;;;1882761;75;21482;-85
2022/05/26 00:56:24;;;;;;;10.35;4.72;;;28.00;99.90;;;;;;1886329;75;21116;-88
2022/05/26 00:58:57;;;;;;;11.97;4.25;;;28.20;99.90;;;;;;1889040;75;21110;-86
2022/05/26 01:01:31;;;;;;;13.55;4.87;;;28.10;99.90;;;;;;1897428;74;21145;-86
2022/05/26 01:04:05;;;;;;;13.25;4.55;;;28.10;99.90;;;;;;1891460;74;21104;-85
2022/05/26 01:06:41;;;;;;;13.38;4.47;;;28.20;99.90;;;;;;1893905;74;21077;-85
2022/05/26 01:09:12;;;;;;;13.18;5.67;;;28.40;99.90;;;;;;1886458;74;21249;-83
2022/05/26 01:11:46;;;;;;;13.78;4.40;;;28.30;99.90;;;;;;1844205;76;21223;-81
2022/05/26 01:14:19;;;;;;;8.88;5.58;;;28.30;99.90;;;;;;1848042;76;21072;-83
2022/05/26 01:16:53;;;;;;;11.97;5.25;;;28.40;99.90;;;;;;1878267;76;21184;-82
2022/05/26 01:19:33;;;;;;;12.33;4.60;;;28.50;99.90;;;;;;1866600;75;21226;-84
2022/05/26 01:22:06;;;;;;;16.00;4.85;;;28.50;99.90;;;;;;1878372;75;21246;-83
2022/05/26 01:24:39;;;;;;;11.90;4.42;;;28.80;99.90;;;;;;1919135;74;21234;-82
2022/05/26 01:27:11;;;;;;;11.88;4.40;;;28.70;99.90;;;;;;1891216;74;21210;-84
2022/05/26 01:29:51;;;;;;;11.15;4.78;;;28.80;99.90;;;;;;1881056;75;22358;-84
2022/05/26 01:32:23;;;;;;;11.22;4.47;;;28.90;99.90;;;;;;1902283;74;21226;-83
2022/05/26 01:34:59;;;;;;;11.00;4.87;;;29.20;99.90;;;;;;1908827;74;21145;-82
2022/05/26 01:37:32;;;;;;;11.90;4.45;;;29.00;99.90;;;;;;1907453;73;21214;-83
2022/05/26 01:40:06;;;;;;;13.85;4.80;;;29.30;99.90;;;;;;1906015;73;21058;-84
2022/05/26 01:42:39;;;;;;;12.18;5.22;;;29.40;99.90;;;;;;1920987;73;21096;-83
2022/05/26 01:45:14;;;;;;;11.10;4.15;;;29.40;99.90;;;;;;1862178;75;21180;-83
2022/05/26 01:47:50;;;;;;;12.65;4.47;;;29.40;99.60;;;;;;1907201;73;21128;-84
2022/05/26 01:50:23;;;;;;;10.63;4.33;;;29.60;99.40;;;;;;1902744;73;21132;-84
2022/05/26 01:52:55;;;;;;;12.78;4.33;;;29.90;99.20;;;;;;1902633;73;21092;-84
2022/05/26 01:55:31;;;;;;;11.05;4.25;;;29.90;98.80;;;;;;1852843;76;21625;-84
2022/05/26 01:58:03;;;;;;;11.10;4.33;;;30.10;98.80;;;;;;1900244;74;21129;-84
2022/05/26 02:00:34;;;;;;;12.25;4.75;;;30.10;99.30;;;;;;1896081;74;21177;-84
2022/05/26 02:03:07;;;;;;;15.90;5.20;;;30.10;98.50;;;;;;1896917;73;21191;-83
2022/05/26 02:05:41;;;;;;;11.45;4.62;;;30.10;97.50;;;;;;1894156;74;21125;-84
2022/05/26 02:08:23;;;;;;;11.10;4.10;;;30.30;97.50;;;;;;1894831;74;21163;-83
2022/05/26 02:10:56;;;;;;;10.45;4.83;;;30.50;97.10;;;;;;1901467;74;21177;-84
2022/05/26 02:13:30;;;;;;;13.00;4.70;;;30.30;97.00;;;;;;1901915;74;21231;-85
2022/05/26 02:16:04;;;;;;;11.08;4.25;;;30.50;97.10;;;;;;1899603;74;21072;-83
2022/05/26 02:18:39;;;;;;;14.18;4.22;;;30.60;97.20;;;;;;1912957;74;21069;-83
2022/05/26 02:21:12;;;;;;;11.03;4.28;;;30.70;96.20;;;;;;1898982;75;21157;-83
2022/05/26 02:23:46;;;;;;;10.90;4.05;;;30.90;96.00;;;;;;1911282;73;21147;-83
2022/05/26 02:26:17;;;;;;;13.20;4.62;;;31.10;95.90;;;;;;1904463;74;21132;-83
2022/05/26 02:31:26;;;;;;;13.50;5.42;;;31.20;95.30;;;;;;1902769;74;21237;-83
2022/05/26 02:33:59;;;;;;;10.50;4.35;;;31.30;95.90;;;;;;1853601;77;21060;-83
2022/05/26 02:36:32;;;;;;;12.35;4.37;;;31.40;94.50;;;;;;1853396;77;21189;-84
2022/05/26 02:39:05;;;;;;;11.55;4.60;;;31.20;95.00;;;;;;1870482;76;21135;-83
2022/05/26 02:41:39;;;;;;;7.58;3.58;;;31.30;94.90;;;;;;1831172;76;21102;-84
2022/05/26 02:44:13;;;;;;;12.18;4.37;;;31.60;94.70;;;;;;1845396;76;21096;-83
2022/05/26 02:46:46;;;;;;;10.88;4.15;;;31.40;94.50;;;;;;1868505;75;21230;-83
2022/05/26 02:49:19;;;;;;;9.98;3.98;;;31.60;93.60;;;;;;1838047;76;21604;-82
2022/05/26 02:51:52;;;;;;;11.90;5.00;;;31.60;93.90;;;;;;1849267;75;21635;-83
2022/05/26 02:54:26;;;;;;;10.95;4.17;;;31.70;94.40;;;;;;1823224;77;21132;-83
2022/05/26 02:57:00;;;;;;;15.00;4.60;;;31.60;93.20;;;;;;1866777;76;21510;-83
2022/05/26 02:59:34;;;;;;;9.75;4.08;;;31.70;93.80;;;;;;1904153;74;21203;-82
2022/05/26 03:02:07;;;;;;;13.78;4.33;;;31.80;94.20;;;;;;1851207;76;21685;-83
2022/05/26 03:04:40;;;;;;;12.58;4.22;;;32.10;93.10;;;;;;1853270;77;21264;-83
2022/05/26 03:07:15;;;;;;;8.30;3.85;;;32.10;93.90;;;;;;1883693;75;21523;-83
2022/05/26 03:09:48;;;;;;;13.00;4.58;;;31.90;93.50;;;;;;1866853;75;21116;-83
2022/05/26 03:12:22;;;;;;;10.32;4.08;;;32.00;92.60;;;;;;1885538;75;22470;-82
2022/05/26 03:15:06;;;;;;;11.15;3.70;;;32.10;93.30;;;;;;1878362;73;21147;-81
2022/05/26 03:17:37;;;;;;;13.30;4.47;;;32.10;91.70;;;;;;1885886;75;21134;-82
2022/05/26 03:20:09;;;;;;;10.80;4.08;;;32.20;91.60;;;;;;1904896;74;21568;-83
2022/05/26 03:22:40;;;;;;;10.88;3.80;;;32.40;91.50;;;;;;1916139;74;21041;-82
2022/05/26 03:25:12;;;;;;;13.93;3.90;;;32.40;91.70;;;;;;1903651;74;21195;-83
2022/05/26 03:27:43;;;;;;;12.95;4.40;;;32.30;91.50;;;;;;1924395;73;21599;-84
2022/05/26 03:30:14;;;;;;;12.43;3.65;;;32.30;92.00;;;;;;1844353;76;21231;-83
2022/05/26 03:32:46;;;;;;;8.98;4.20;;;32.40;91.20;;;;;;1886229;74;21590;-83
2022/05/26 03:42:55;;;;;;;9.15;4.28;;;32.70;90.20;;;;;;1906167;74;21190;-82
2022/05/26 03:45:28;;;;;;;10.93;4.30;;;32.60;90.00;;;;;;1844169;76;21140;-82
2022/05/26 03:47:58;;;;;;;13.53;4.22;;;32.80;90.20;;;;;;1885333;74;21701;-83
2022/05/26 03:50:29;;;;;;;11.88;4.05;;;32.80;90.50;;;;;;1844559;76;21647;-82
2022/05/26 03:53:10;;;;;;;11.97;3.80;;;32.90;90.10;;;;;;1891865;74;21080;-82
2022/05/26 03:55:53;;;;;;;10.68;3.95;;;32.90;90.30;;;;;;1836715;76;21149;-83
2022/05/26 03:58:42;;;;;;;15.43;4.25;;;33.00;90.10;;;;;;1874153;74;21151;-84
2022/05/26 04:01:24;;;;;;;13.62;4.85;;;32.90;89.80;;;;;;1898733;75;21161;-83
2022/05/26 04:03:55;;;;;;;11.15;4.20;;;33.20;88.90;;;;;;1868325;75;21638;-83
2022/05/26 04:06:28;;;;;;;12.07;4.10;;;33.10;87.00;;;;;;1875284;75;21059;-83
2022/05/26 04:08:59;;;;;;;12.30;4.25;;;33.40;88.00;;;;;;1900489;74;21211;-84
2022/05/26 04:11:30;;;;;;;12.00;3.87;;;33.20;88.60;;;;;;1892842;74;21653;-83
2022/05/26 04:14:01;;;;;;;12.50;4.17;;;33.30;87.20;;;;;;1887307;74;21150;-83
2022/05/26 04:16:32;;;;;;;13.43;4.28;;;33.40;85.50;;;;;;1885467;74;21250;-81
2022/05/26 04:19:06;;;;;;;16.02;3.98;;;33.50;86.90;;;;;;1885699;74;21301;-77
2022/05/26 04:22:14;;;;;;;10.55;4.05;;;33.50;86.90;;;;;;1899259;74;21084;-79
2022/05/26 04:24:16;;;;;;;13.10;4.55;;;33.50;85.50;;;;;;1873712;75;21565;-79
2022/05/26 04:26:47;;;;;;;9.95;4.33;;;33.50;86.10;;;;;;1907372;73;21808;-78
2022/05/26 04:29:23;;;;;;;9.60;3.80;;;33.40;85.10;;;;;;1873450;75;21077;-78
2022/05/26 04:31:52;;;;;;;14.58;4.37;;;33.50;85.50;;;;;;1913926;73;21167;-79
2022/05/26 04:34:23;;;;;;;8.95;4.42;;;33.50;84.40;;;;;;1918268;73;21185;-78
2022/05/26 04:36:54;;;;;;;12.93;4.17;;;33.50;85.30;;;;;;1922312;73;21195;-79
2022/05/26 04:39:25;;;;;;;11.78;4.35;;;33.40;85.80;;;;;;1876397;75;21664;-79
2022/05/26 04:42:00;;;;;;;11.45;4.30;;;33.30;85.30;;;;;;1889451;75;21165;-81
2022/05/26 04:44:35;;;;;;;11.40;4.28;;;33.20;84.00;;;;;;1886576;74;21743;-79
2022/05/26 04:47:07;;;;;;;15.28;4.65;;;33.20;84.70;;;;;;1913869;73;21584;-80
2022/05/26 04:49:42;;;;;;;10.50;4.50;;;33.50;85.90;;;;;;1838429;76;21137;-81
2022/05/26 04:52:18;;;;;;;12.15;4.72;;;33.40;85.60;;;;;;1868020;75;21161;-81
2022/05/26 04:54:53;;;;;;;;;;;33.20;84.80;;;;;;1872224;75;21116;-78
2022/05/26 04:57:26;;;;;;;15.83;4.47;;;33.30;83.50;;;;;;1825448;76;20184;-81
2022/05/26 04:59:58;;;;;;;13.78;4.62;;;33.40;82.40;;;;;;1885828;74;21607;-83
2022/05/26 05:02:32;;;;;;;10.48;4.85;;;33.40;83.90;;;;;;1874960;74;21209;-85
2022/05/26 05:05:06;;;;;;;8.73;4.35;;;33.30;83.70;;;;;;1884757;74;21158;-81
2022/05/26 05:07:37;;;;;;;12.10;5.00;;;33.30;83.40;;;;;;1903739;73;21718;-80
2022/05/26 05:10:11;;;;;;;12.98;4.65;;;33.40;84.60;;;;;;1914632;73;21132;-82
2022/05/26 05:12:42;;;;;;;12.45;4.67;;;33.00;83.80;;;;;;1839350;76;21195;-78
2022/05/26 05:15:18;;;;;;;9.23;4.35;;;33.00;83.70;;;;;;1847367;76;21184;-80
2022/05/26 05:17:51;;;;;;;11.57;4.83;;;33.20;84.50;;;;;;1897846;74;21175;-83
2022/05/26 05:20:22;;;;;;;13.83;5.33;;;32.90;83.80;;;;;;1838387;76;21227;-81
2022/05/26 05:23:00;;;;;;;13.90;5.17;;;32.80;84.80;;;;;;1846838;78;21660;-79
2022/05/26 05:25:50;;;;;;;12.85;5.25;;;33.00;85.20;;;;;;1866618;75;21178;-79
2022/05/26 05:28:25;;;;;;;11.95;5.25;;;32.80;85.30;;;;;;1888462;74;21093;-78
2022/05/26 05:31:00;;;;;;;12.98;5.37;;;33.00;84.90;;;;;;1895252;74;21167;-84
2022/05/26 05:33:32;;;;;;;14.15;5.12;;;33.20;83.70;;;;;;1908379;74;21656;-83
2022/05/26 05:36:04;;;;;;;10.15;4.85;;;33.20;83.20;;;;;;1885773;74;21264;-81
2022/05/26 05:38:38;;;;;;;13.53;4.55;;;33.10;82.40;;;;;;1894638;74;21170;-82
2022/05/26 05:41:10;;;;;;;10.82;4.50;;;33.10;83.70;;;;;;1903087;74;21048;-79
2022/05/26 05:43:42;;;;;;;14.55;5.22;;;32.90;84.40;;;;;;1881473;74;21238;-82
2022/05/26 05:46:15;;;;;;;11.60;5.15;;;33.00;86.20;;;;;;1873351;74;21189;-82
2022/05/26 05:48:46;;;;;;;11.75;4.75;;;32.70;87.80;;;;;;1912876;73;21161;-81
2022/05/26 05:51:18;;;;;;;14.50;4.87;;;32.80;88.80;;;;;;1914434;73;21144;-76
2022/05/26 05:53:49;;;;;;;12.35;4.83;;;32.70;89.30;;;;;;1911696;73;21211;-80
2022/05/26 05:56:20;;;;;;;12.60;4.25;;;32.50;90.20;;;;;;1923180;73;21196;-83
2022/05/26 05:58:51;;;;;;;11.63;4.47;;;32.80;90.30;;;;;;1910388;73;21183;-80
2022/05/26 06:01:25;;;;;;;12.70;4.40;;;32.50;89.70;;;;;;1844028;76;21223;-77
2022/05/26 06:03:54;;;;;;;12.50;3.98;;;32.70;89.30;;;;;;1845382;76;21215;-81
2022/05/26 06:06:25;;;;;;;11.60;4.40;;;32.60;90.30;;;;;;1851322;76;21072;-81
2022/05/26 06:09:00;;;;;;;12.95;4.80;;;32.40;90.60;;;;;;1874099;74;21127;-81
2022/05/26 06:11:31;;;;;;;12.00;4.58;;;32.40;90.20;;;;;;1877478;74;21163;-80
2022/05/26 06:14:03;;;;;;;14.93;5.78;;;32.70;90.30;;;;;;1880112;74;21088;-80
2022/05/26 06:16:34;;;;;;;12.50;4.58;;;32.30;90.60;;;;;;1903295;73;21064;-81
2022/05/26 06:19:06;;;;;;;12.45;4.85;;;32.40;90.50;;;;;;1921353;73;21205;-81
2022/05/26 06:21:39;;;;;;;15.43;4.70;;;32.40;90.40;;;;;;1907920;73;21132;-82
2022/05/26 06:24:11;;;;;;;13.32;4.87;;;32.30;90.20;;;;;;1876154;73;21155;-80
2022/05/26 06:26:42;;;;;;;9.60;3.77;;;32.50;90.60;;;;;;1880916;74;21202;-80
2022/05/26 06:39:24;;;;;;;10.70;4.40;;;32.30;90.70;;;;;;1884576;74;21773;-82
2022/05/26 06:44:28;;;;;;;10.90;4.67;;;32.20;90.60;;;;;;1889295;74;21666;-85
2022/05/26 06:46:58;;;;;;;13.60;4.40;;;32.40;90.90;;;;;;1848343;75;21131;-82
2022/05/26 06:49:29;;;;;;;12.40;4.12;;;32.30;89.50;;;;;;1911640;74;21573;-83
2022/05/26 06:52:00;;;;;;;13.20;4.37;;;32.50;89.40;;;;;;1901628;75;21593;-83
2022/05/26 06:54:34;;;;;;;8.95;3.77;;;32.70;88.40;;;;;;1895371;74;21239;-83
2022/05/26 06:57:07;;;;;;;10.40;3.67;;;32.70;88.30;;;;;;1914157;73;21122;-80
2022/05/26 06:59:38;;;;;;;14.38;3.98;;;32.80;87.10;;;;;;1890229;74;21107;-79
2022/05/26 07:02:12;;;;;;;11.93;4.15;;;33.10;87.20;;;;;;1887870;74;21119;-80
2022/05/26 07:04:44;;;;;;;13.72;4.80;;;32.80;88.20;;;;;;1890537;74;21116;-81
2022/05/26 07:07:16;;;;;;;11.15;4.67;;;32.90;88.10;;;;;;1901481;74;21656;-79
2022/05/26 07:09:55;;;;;;;12.28;4.83;;;33.10;87.40;;;;;;1893830;74;21617;-85
2022/05/26 07:12:29;;;;;;;10.63;4.05;;;33.00;87.30;;;;;;1903569;72;21232;-84
2022/05/26 07:15:00;;;;;;;8.85;4.00;;;33.10;87.30;;;;;;1888484;74;21184;-85
2022/05/26 07:17:33;;;;;;;12.60;4.50;;;33.20;87.40;;;;;;1887805;74;21205;-86
2022/05/26 07:20:04;;;;;;;11.88;4.53;;;33.00;87.30;;;;;;1892500;74;21268;-86
2022/05/26 07:22:35;;;;;;;11.60;3.83;;;33.10;87.30;;;;;;1862229;75;21178;-86
2022/05/26 07:25:07;;;;;;;8.48;4.03;;;33.20;87.40;;;;;;1871929;75;21095;-86
2022/05/26 07:27:38;;;;;;;8.20;3.90;;;33.30;87.50;;;;;;1861603;75;21237;-86
2022/05/26 07:30:10;;;;;;;10.10;4.08;;;33.30;87.80;;;;;;1824994;77;21233;-85
2022/05/26 07:32:41;;;;;;;12.37;4.15;;;33.30;87.10;;;;;;1825623;77;21120;-85
2022/05/26 07:35:12;;;;;;;13.80;4.08;;;33.00;87.20;;;;;;1884529;75;21147;-85
2022/05/26 07:42:47;;;;;;;10.80;4.72;;;33.00;87.60;;;;;;1870538;75;21746;-76
2022/05/26 07:45:19;;;;;;;10.70;4.15;;;33.00;87.70;;;;;;1867504;75;21183;-77
2022/05/26 07:47:51;;;;;;;10.82;4.22;;;33.20;88.20;;;;;;1871194;75;21676;-76
2022/05/26 07:50:21;;;;;;;10.50;3.47;;;32.90;86.60;;;;;;1864761;75;21082;-76
2022/05/26 07:52:53;;;;;;;13.90;4.33;;;32.90;87.90;;;;;;1865013;75;21899;-76
2022/05/26 07:55:24;;;;;;;10.70;3.77;;;32.90;87.00;;;;;;1859852;75;21125;-77
2022/05/26 07:57:58;;;;;;;8.73;3.77;;;32.80;87.40;;;;;;1823178;77;21110;-77
2022/05/26 08:00:29;;;;;;;12.25;4.85;;;32.80;87.70;;;;;;1862225;75;21098;-76
2022/05/26 08:03:00;;;;;;;14.87;3.85;;;32.80;88.30;;;;;;1859437;75;21159;-75
2022/05/26 08:05:31;;;;;;;13.65;3.58;;;32.60;89.60;;;;;;1853595;76;21057;-75
2022/05/26 08:08:02;;;;;;;11.25;3.25;;;32.10;90.90;;;;;;1844313;77;21097;-76
2022/05/26 08:10:33;;;;;;;9.18;2.33;;;31.50;92.00;;;;;;1829433;75;21120;-75
2022/05/26 08:13:04;;;;;;;7.20;2.70;;;30.80;93.20;;;;;;1825974;77;21245;-76
2022/05/26 08:15:35;;;;;;;9.53;3.02;;;30.40;94.50;;;;;;1834547;77;21685;-77
2022/05/26 08:18:07;;;;;;;8.83;2.62;;;29.90;96.40;;;;;;1826674;77;21599;-78
2022/05/26 08:20:38;;;;;;;11.00;3.10;;;29.60;97.00;;;;;;1855674;75;21163;-76
2022/05/26 08:23:08;;;;;;;16.05;4.10;;;29.30;97.60;;;;;;1822663;77;21182;-80
2022/05/26 08:25:40;;;;;;;11.48;3.85;;;28.80;99.40;;;;;;1820529;77;21183;-80
2022/05/26 08:28:12;;;;;;;14.63;4.58;;;28.30;99.90;;;;;;1859833;75;21602;-78
2022/05/26 08:30:44;;;;;;;13.25;4.42;;;28.20;99.90;;;;;;1884546;75;21166;-78
2022/05/26 08:33:15;;;;;;;14.10;4.35;;;28.00;99.90;;;;;;1854374;76;21099;-77
2022/05/26 08:35:46;;;;;;;9.90;3.08;;;27.80;99.90;;;;;;1824897;77;21095;-78
2022/05/26 08:38:17;;;;;;;11.78;3.95;;;27.80;99.90;;;;;;1844256;76;21367;-79
2022/05/26 08:40:51;;;;;;;11.38;4.12;;;27.70;99.90;;;;;;1842719;76;21851;-78
2022/05/26 08:43:24;;;;;;;11.63;3.85;;;27.70;99.90;;;;;;1850645;76;21741;-78
2022/05/26 08:45:56;;;;;;;9.58;3.45;;;27.50;99.90;;;;;;1843093;76;21194;-77
2022/05/26 08:48:29;;;;;;;13.22;4.55;;;27.40;99.90;;;;;;1877504;76;21158;-77
2022/05/26 08:51:01;;;;;;;12.75;4.28;;;27.40;99.90;;;;;;1872195;75;21217;-78
2022/05/26 08:53:35;;;;;;;11.88;3.60;;;27.30;99.90;;;;;;1860455;76;21118;-79
2022/05/26 08:56:07;;;;;;;8.20;3.80;;;27.40;99.90;;;;;;1888776;74;21178;-79
2022/05/26 08:58:41;;;;;;;7.65;3.05;;;27.30;99.90;;;;;;1871183;75;21714;-78
2022/05/26 09:01:17;;;;;;;8.88;3.80;;;27.20;99.90;;;;;;1854257;75;21178;-77
2022/05/26 09:03:48;;;;;;;12.98;4.05;;;27.20;99.90;;;;;;1847892;76;21452;-79
2022/05/26 09:06:21;;;;;;;7.60;3.95;;;27.10;99.90;;;;;;1879545;75;21699;-77
2022/05/26 09:14:04;;;;;;;9.40;3.67;;;27.40;99.90;;;;;;1889148;74;21550;-78
2022/05/26 09:16:37;;;;;;;10.20;4.37;;;27.40;99.90;;;;;;1893078;74;21202;-79
2022/05/26 09:19:10;;;;;;;8.48;4.20;;;27.40;99.90;;;;;;1891900;74;21060;-79
2022/05/26 09:21:46;;;;;;;14.58;4.60;;;27.50;99.90;;;;;;1907997;74;21186;-80
2022/05/26 09:24:18;;;;;;;9.40;4.33;;;27.50;99.90;;;;;;1889668;73;21729;-76
2022/05/26 09:26:51;;;;;;;11.08;4.58;;;27.30;99.90;;;;;;1827618;77;21079;-78
2022/05/26 09:29:25;;;;;;;10.05;4.97;;;27.30;99.90;;;;;;1872428;76;21109;-79
2022/05/26 09:31:58;;;;;;;12.65;4.40;;;27.30;99.90;;;;;;1845381;77;21132;-77
2022/05/26 09:34:33;;;;;;;13.10;4.92;;;27.40;99.90;;;;;;1826158;76;21742;-78
2022/05/26 09:37:20;;;;;;;10.65;4.80;;;27.40;99.90;;;;;;1821851;77;21853;-77
2022/05/26 09:39:52;;;;;;;9.98;4.30;;;27.40;99.90;;;;;;1815532;77;21128;-79
2022/05/26 09:42:27;;;;;;;9.65;4.80;;;27.40;99.90;;;;;;1816412;77;21241;-79
2022/05/26 09:45:00;;;;;;;11.22;4.25;;;27.30;99.90;;;;;;1886698;74;21111;-78
2022/05/26 09:47:34;;;;;;;9.68;4.55;;;27.50;99.90;;;;;;1877423;75;21617;-78
2022/05/26 09:50:08;;;;;;;7.53;4.12;;;27.30;99.90;;;;;;1867375;75;21172;-79
2022/05/26 09:52:42;;;;;;;7.92;3.77;;;27.30;99.90;;;;;;1860271;75;21112;-79
2022/05/26 09:55:14;;;;;;;8.25;4.20;;;27.40;99.90;;;;;;1873827;75;21090;-78
2022/05/26 09:57:59;;;;;;;9.40;4.53;;;27.40;99.90;;;;;;1871162;75;21702;-77
2022/05/26 10:00:31;;;;;;;11.08;3.95;;;27.40;99.90;;;;;;1869333;75;21151;-79
2022/05/26 10:03:04;;;;;;;6.28;3.15;;;27.50;99.90;;;;;;1808829;77;21294;-78
2022/05/26 10:05:38;;;;;;;8.05;3.37;;;27.40;99.90;;;;;;1858191;75;21153;-78
2022/05/26 10:08:11;;;;;;;12.95;4.40;;;27.40;99.90;;;;;;1866482;75;21633;-77
2022/05/26 10:10:45;;;;;;;8.65;3.60;;;27.30;99.90;;;;;;1856569;75;21179;-78
2022/05/26 10:13:18;;;;;;;4.90;3.12;;;27.50;99.90;;;;;;1868429;75;21694;-76
2022/05/26 10:15:52;;;;;;;6.50;3.30;;;27.60;99.90;;;;;;1868233;75;21140;-78
2022/05/26 10:18:26;;;;;;;9.13;3.47;;;27.70;99.90;;;;;;1868723;75;21112;-78
2022/05/26 10:21:00;;;;;;;10.43;5.10;;;27.50;99.90;;;;;;1862662;75;21152;-83
2022/05/26 10:23:32;;;;;;;10.63;4.17;;;27.60;99.90;;;;;;1871790;75;21084;-82
2022/05/26 10:26:06;;;;;;;7.80;4.20;;;27.80;99.90;;;;;;1872166;75;21109;-83
2022/05/26 10:28:39;;;;;;;8.10;3.40;;;27.60;99.90;;;;;;1873868;75;21196;-84
2022/05/26 10:31:14;;;;;;;8.00;3.42;;;27.60;99.90;;;;;;1878279;75;21222;-84
2022/05/26 10:33:51;;;;;;;7.97;3.52;;;27.70;99.90;;;;;;1900671;75;21233;-84
2022/05/26 10:36:25;;;;;;;11.22;4.08;;;27.60;99.90;;;;;;1894316;74;21120;-84
2022/05/26 10:38:58;;;;;;;9.93;4.28;;;27.70;99.90;;;;;;1888428;74;21175;-82
2022/05/26 10:41:32;;;;;;;10.90;3.72;;;27.70;99.90;;;;;;1886044;75;21840;-83
2022/05/26 10:44:11;;;;;;;7.40;3.80;;;27.80;99.90;;;;;;1885188;74;21588;-83
2022/05/26 10:46:45;;;;;;;11.93;4.60;;;27.70;99.90;;;;;;1892213;74;21139;-85
2022/05/26 10:49:20;;;;;;;13.65;5.08;;;27.70;99.90;;;;;;1877085;75;21672;-84
2022/05/26 10:51:53;;;;;;;11.55;4.10;;;27.80;99.90;;;;;;1885397;75;21162;-83
2022/05/26 10:54:29;;;;;;;11.28;4.70;;;27.90;99.90;;;;;;1841504;76;21124;-84
2022/05/26 10:57:05;;;;;;;13.85;5.72;;;27.80;99.90;;;;;;1856930;76;21190;-84
2022/05/26 10:59:40;;;;;;;11.30;5.05;;;27.70;99.90;;;;;;1845711;77;21155;-82
2022/05/26 11:02:15;;;;;;;13.03;6.20;;;27.80;99.90;;;;;;1854239;76;21089;-83
2022/05/26 11:04:48;;;;;;;10.78;4.95;;;27.50;99.90;;;;;;1856390;76;21570;-84
2022/05/26 11:07:25;;;;;;;9.48;4.47;;;27.70;99.90;;;;;;1856467;76;22267;-84
2022/05/26 11:09:58;;;;;;;15.45;5.67;;;27.60;99.90;;;;;;1853170;76;21968;-83
2022/05/26 11:12:35;;;;;;;16.70;5.50;;;27.70;99.90;;;;;;1855977;76;21187;-83
2022/05/26 11:17:46;;;;;;;15.43;5.72;;;27.60;99.90;;;;;;1850858;76;21714;-84
2022/05/26 11:20:22;;;;;;;13.83;5.20;;;27.70;99.90;;;;;;1850738;76;21114;-84
2022/05/26 11:22:54;;;;;;;20.10;6.20;;;27.60;99.90;;;;;;1853324;76;21595;-84
2022/05/26 11:25:27;;;;;;;14.18;5.50;;;27.70;99.90;;;;;;1857700;76;21126;-84
2022/05/26 11:28:02;;;;;;;13.55;5.75;;;27.80;99.90;;;;;;1858194;76;21093;-83
2022/05/26 11:38:25;;;;;;;18.73;6.90;;;27.70;99.90;;;;;;1851490;76;21228;-85
2022/05/26 11:41:01;;;;;;;12.28;5.92;;;27.70;99.90;;;;;;1853985;76;21229;-83
2022/05/26 11:43:35;;;;;;;12.93;6.40;;;27.70;99.90;;;;;;1858332;76;21156;-85
2022/05/26 11:46:08;;;;;;;15.45;8.68;;;27.90;99.90;;;;;;1822839;77;21201;-83
2022/05/26 11:48:45;;;;;;;13.32;6.83;;;27.90;99.90;;;;;;1814692;77;21661;-83
2022/05/26 11:51:15;;;;;;;16.30;6.20;;;27.90;99.90;;;;;;1812311;77;21245;-84
2022/05/26 11:53:49;;;;;;;16.15;6.60;;;27.90;99.90;;;;;;1829560;77;21269;-84
2022/05/26 11:56:22;;;;;;;15.50;6.83;;;28.00;99.90;;;;;;1828899;77;21222;-83
2022/05/26 11:58:59;;;;;;;20.70;7.12;;;28.00;99.90;;;;;;1821970;78;21887;-83
2022/05/26 12:01:28;;;;;;;16.93;7.03;;;28.00;99.90;;;;;;1823250;77;21166;-84
2022/05/26 12:04:00;;;;;;;13.43;6.12;;;28.00;99.90;;;;;;1823508;77;21166;-82
2022/05/26 12:06:35;;;;;;;12.68;7.00;;;28.10;99.90;;;;;;1834633;77;21096;-83
2022/05/26 12:09:10;;;;;;;17.25;6.28;;;28.00;99.90;;;;;;1846686;77;21056;-84
2022/05/26 12:11:41;;;;;;;18.82;6.95;;;28.00;99.90;;;;;;1815018;77;21155;-84
2022/05/26 12:14:14;;;;;;;15.80;7.10;;;28.10;99.90;;;;;;1786061;78;21168;-84
2022/05/26 12:16:48;;;;;;;20.48;7.03;;;27.90;99.90;;;;;;1831017;74;21150;-84
2022/05/26 12:19:22;;;;;;;15.10;6.22;;;27.90;99.90;;;;;;1826973;77;21307;-83
2022/05/26 12:21:55;;;;;;;18.17;6.72;;;27.90;99.90;;;;;;1821194;76;21100;-82
2022/05/26 12:24:30;;;;;;;17.12;7.30;;;27.90;99.90;;;;;;1828545;77;21147;-84
2022/05/26 12:27:02;;;;;;;18.35;7.47;;;27.80;99.90;;;;;;1826587;77;21650;-84
2022/05/26 12:29:36;;;;;;;15.68;7.37;;;27.70;99.90;;;;;;1823861;77;21207;-84
2022/05/26 12:32:11;;;;;;;16.75;7.70;;;27.80;99.90;;;;;;1823866;77;21163;-84
2022/05/26 12:34:45;;;;;;;14.58;6.97;;;27.80;99.90;;;;;;1831114;77;21103;-83
2022/05/26 12:37:19;;;;;;;25.85;7.60;;;27.70;99.90;;;;;;1854434;76;21696;-84
2022/05/26 12:39:52;;;;;;;16.20;7.35;;;27.70;99.90;;;;;;1853755;76;21258;-84
2022/05/26 12:42:26;;;;;;;16.05;7.45;;;27.70;99.90;;;;;;1854673;76;21145;-85
2022/05/26 12:44:59;;;;;;;18.87;8.75;;;27.80;99.90;;;;;;1755526;80;21249;-84
2022/05/26 12:47:36;;;;;;;16.52;7.45;;;27.70;99.90;;;;;;1768018;79;21304;-86
2022/05/26 12:50:06;;;;;;;17.15;7.97;;;27.70;99.90;;;;;;1767230;80;21229;-82
2022/05/26 12:52:39;;;;;;;16.25;7.30;;;27.80;99.90;;;;;;1770017;79;21155;-84
2022/05/26 12:55:14;;;;;;;17.23;7.85;;;27.80;99.90;;;;;;1775418;79;21128;-84
2022/05/26 12:57:47;;;;;;;15.32;7.50;;;27.80;99.90;;;;;;1768583;79;21227;-83
2022/05/26 13:00:20;;;;;;;19.37;9.20;;;27.90;99.90;;;;;;1773330;79;21223;-84
2022/05/26 13:02:54;;;;;;;17.75;8.50;;;27.80;99.90;;;;;;1764863;79;21138;-84
2022/05/26 13:05:27;;;;;;;19.77;8.73;;;27.80;99.90;;;;;;1778647;79;21221;-83
2022/05/26 13:08:01;;;;;;;25.80;9.90;;;27.80;99.90;;;;;;1775548;78;21210;-82
2022/05/26 13:10:36;;;;;;;21.85;9.18;;;27.80;99.90;;;;;;1766292;79;21173;-82
2022/05/26 13:13:10;;;;;;;22.30;8.75;;;27.90;99.90;;;;;;1767498;79;21593;-82
2022/05/26 13:15:45;;;;;;;;;;;27.90;99.90;;;;;;1795467;77;21137;-84
2022/05/26 13:18:17;;;;;;;22.98;10.38;;;28.00;99.90;;;;;;1872074;76;20156;-83
2022/05/26 13:20:51;;;;;;;19.80;10.28;;;27.80;99.90;;;;;;1857147;75;21226;-86
2022/05/26 13:23:26;;;;;;;24.95;9.83;;;28.00;99.90;;;;;;1836776;76;21215;-84
2022/05/26 13:26:03;;;;;;;18.90;9.48;;;27.90;99.90;;;;;;1840346;76;21150;-83
2022/05/26 13:28:34;;;;;;;20.20;9.88;;;27.80;99.90;;;;;;1824365;77;21197;-84
2022/05/26 13:33:42;;;;;;;25.23;10.00;;;28.00;99.90;;;;;;1822277;77;21167;-84
2022/05/26 13:36:17;;;;;;;27.85;13.00;;;27.90;99.90;;;;;;1862645;75;21143;-84
2022/05/26 13:38:48;;;;;;;18.05;10.58;;;27.90;99.90;;;;;;1869004;75;21099;-84
2022/05/26 13:41:22;;;;;;;17.40;10.08;;;27.90;99.90;;;;;;1838046;75;21123;-84
2022/05/26 13:43:56;;;;;;;21.87;9.83;;;27.90;99.90;;;;;;1862564;75;21540;-84
2022/05/26 13:46:32;;;;;;;19.25;9.88;;;28.10;99.90;;;;;;1862788;75;21151;-84
2022/05/26 13:49:06;;;;;;;25.60;9.83;;;27.90;99.90;;;;;;1857960;75;21637;-84
2022/05/26 13:51:37;;;;;;;26.23;10.75;;;28.10;99.90;;;;;;1864767;75;21874;-84
2022/05/26 13:54:11;;;;;;;22.05;10.20;;;27.90;99.90;;;;;;1859655;77;21151;-83